Latest Weather Observations for Laverton

IDV60901

Issued at 4:31 am EST Tuesday 21 May 2019 (issued every 10 minutes, with the page automatically refreshed every 10 minutes)

About weather observations | Map of Melbourne area stations | Latest observations for Melbourne area | Other Formats
Station Details ID: 087031 Name: LAVERTON RAAF Lat: -37.86 Lon: 144.76 Height: 20.1 m
Data from the previous 72 hours. | See also: Recent months at Laverton
Date/Time
EST
Temp
°C
App
Temp
°C
Dew
Point
°C
Rel
Hum
%
Delta-T
°C
Wind Press
QNH
hPa
Press
MSL
hPa
Rain since
9am
mm
Dir  Spd
km/h
Gust
km/h
Spd
kts
Gust
kts
21/04:30am 11.1 8.9 8.0 81 1.5 NNW 9 13 5 7 1021.0 1021.0 0.6
21/04:00am 11.3 8.4 8.2 81 1.5 N 13 19 7 10 1020.6 1020.6 0.6
21/03:30am 11.9 9.1 8.4 79 1.7 N 13 19 7 10 1020.5 1020.5 0.6
21/03:00am 11.3 8.9 8.5 83 1.4 NNW 11 15 6 8 1020.7 1020.7 0.6
21/02:30am 11.4 8.3 9.0 85 1.2 NW 15 19 8 10 1020.7 1020.7 0.6
21/02:00am 12.0 9.6 8.8 81 1.6 NNW 11 15 6 8 1020.6 1020.6 0.6
21/01:30am 11.1 8.4 8.8 86 1.1 NNW 13 15 7 8 1020.4 1020.4 0.6
21/01:00am 11.7 9.9 9.4 86 1.2 N 9 13 5 7 1020.7 1020.7 0.6
21/12:30am 11.7 9.6 9.6 87 1.1 NNW 11 15 6 8 1020.8 1020.8 0.6
21/12:00am 12.2 10.2 10.1 87 1.1 NNW 11 13 6 7 1020.7 1020.7 0.6
 
Date/Time
EST
Temp
°C
App
Temp
°C
Dew
Point
°C
Rel
Hum
%
Delta-T
°C
Wind Press
QNH
hPa
Press
MSL
hPa
Rain since
9am
mm
Dir  Spd
km/h
Gust
km/h
Spd
kts
Gust
kts
20/11:30pm 12.7 10.2 11.1 90 0.8 NNW 15 20 8 11 1020.8 1020.8 0.6
20/11:00pm 12.3 10.9 10.9 91 0.7 NNW 9 13 5 7 1021.0 1021.0 0.6
20/10:30pm 13.5 11.5 11.4 87 1.1 NNW 13 19 7 10 1020.7 1020.7 0.6
20/10:00pm 13.9 11.9 11.6 86 1.2 N 13 19 7 10 1020.7 1020.7 0.6
20/09:30pm 13.3 12.4 11.5 89 1.0 NNW 7 9 4 5 1020.6 1020.6 0.6
20/09:00pm 13.9 12.6 11.2 84 1.4 N 9 15 5 8 1020.4 1020.4 0.6
20/08:30pm 14.7 13.2 11.8 83 1.6 NNE 11 15 6 8 1020.3 1020.3 0.6
20/08:00pm 15.0 12.7 11.8 81 1.7 N 15 22 8 12 1020.0 1020.0 0.6
20/07:30pm 15.3 12.7 11.9 80 1.8 N 17 22 9 12 1019.6 1019.6 0.6
20/07:00pm 15.6 12.6 12.0 79 2.0 N 19 26 10 14 1019.1 1019.1 0.6
20/06:30pm 15.9 12.9 11.9 77 2.2 N 19 26 10 14 1018.9 1018.9 0.6
20/06:00pm 16.2 13.0 12.0 76 2.3 N 20 33 11 18 1018.6 1018.6 0.6
20/05:30pm 16.5 13.3 11.9 74 2.5 N 20 32 11 17 1018.4 1018.4 0.6
20/05:00pm 17.0 14.0 11.9 72 2.8 N 19 28 10 15 1018.2 1018.2 0.6
20/04:30pm 17.4 14.3 12.1 71 2.9 N 20 32 11 17 1018.3 1018.3 0.6
20/04:00pm 18.1 14.6 12.1 68 3.3 N 22 32 12 17 1018.1 1018.1 0.6
20/03:30pm 18.1 13.4 11.9 67 3.4 N 28 39 15 21 1017.8 1017.8 0.6
20/03:00pm 18.3 14.0 12.1 67 3.4 N 26 35 14 19 1018.2 1018.2 0.6
20/02:30pm 17.3 13.4 12.0 71 2.9 N 24 39 13 21 1018.5 1018.5 0.6
20/02:00pm 17.1 13.1 11.8 71 2.9 N 24 39 13 21 1018.2 1018.2 0.6
20/01:30pm 17.9 13.6 11.9 68 3.3 N 26 37 14 20 1018.2 1018.2 0.6
20/01:20pm 17.9 13.1 11.7 67 3.4 N 28 48 15 26 1018.1 1018.1 0.6
20/01:00pm 18.4 14.1 11.9 66 3.6 N 26 43 14 23 1018.1 1018.1 0.6
20/12:34pm 18.2 13.5 12.0 67 3.4 N 28 46 15 25 1018.7 1018.7 0.6
20/12:30pm 18.3 14.5 12.5 69 3.2 N 24 41 13 22 1018.8 1018.8 0.6
20/12:00pm 15.7 12.3 11.3 75 2.4 N 20 32 11 17 1019.4 1019.4 0.6
20/11:30am 14.9 11.8 11.5 80 1.8 NNE 19 30 10 16 1019.5 1019.5 0.6
20/11:00am 15.5 12.1 11.1 75 2.3 N 20 33 11 18 1020.5 1020.5 0.2
20/10:33am 16.2 11.0 10.3 68 3.1 N 28 46 15 25 1019.8 1019.8 0.0
20/10:30am 16.4 12.0 10.3 67 3.2 N 24 46 13 25 1019.8 1019.8 0.0
20/10:00am 16.8 11.5 9.7 63 3.7 N 28 48 15 26 1020.1 1020.1 0.0
20/09:53am 16.8 11.2 10.0 64 3.6 NNE 30 48 16 26 1020.2 1020.2 0.0
20/09:30am 16.8 12.2 9.7 63 3.7 N 24 43 13 23 1020.6 1020.6 0.0
20/09:00am 16.5 11.6 9.9 65 3.5 N 26 41 14 22 1020.9 1020.9 0.2
20/08:30am 16.6 12.0 9.8 64 3.6 N 24 44 13 24 1021.2 1021.2 0.2
20/08:00am 16.7 12.1 9.6 63 3.7 N 24 39 13 21 1021.2 1021.2 0.2
20/07:30am 16.7 11.7 9.4 62 3.8 N 26 44 14 24 1021.3 1021.3 0.2
20/07:00am 17.1 13.1 9.0 59 4.2 N 20 35 11 19 1020.7 1020.7 0.2
20/06:30am 17.0 12.8 9.7 62 3.8 NNE 22 33 12 18 1020.5 1020.5 0.2
20/06:00am 15.9 12.8 10.4 70 2.9 N 17 24 9 13 1020.5 1020.5 0.2
20/05:30am 16.3 13.5 9.9 66 3.4 NNE 15 20 8 11 1020.6 1020.6 0.0
20/05:00am 15.3 12.8 9.7 69 2.9 NE 13 15 7 8 1021.1 1021.1 0.0
20/04:30am 15.7 12.7 9.1 65 3.4 NNE 15 19 8 10 1021.1 1021.1 0.0
20/04:00am 15.4 12.3 8.9 65 3.3 NNE 15 22 8 12 1021.3 1021.3 0.0
20/03:30am 15.1 11.2 8.8 66 3.2 NNE 19 26 10 14 1021.5 1021.5 0.0
20/03:00am 14.6 11.0 8.5 67 3.1 NNE 17 22 9 12 1022.0 1022.0 0.0
20/02:30am 14.2 11.3 8.2 67 3.0 NNE 13 17 7 9 1022.3 1022.3 0.0
20/02:00am 14.1 10.9 8.3 68 2.9 NNE 15 20 8 11 1022.3 1022.3 0.0
20/01:30am 14.7 11.1 8.4 66 3.2 NNE 17 24 9 13 1022.6 1022.6 0.0
20/01:00am 13.3 11.3 8.6 73 2.3 NNE 9 15 5 8 1023.0 1023.0 0.0
20/12:30am 13.6 10.8 8.4 71 2.6 NNE 13 17 7 9 1023.3 1023.3 0.0
20/12:00am 14.1 11.3 8.7 70 2.7 NNE 13 20 7 11 1023.4 1023.4 0.0
 
Date/Time
EST
Temp
°C
App
Temp
°C
Dew
Point
°C
Rel
Hum
%
Delta-T
°C
Wind Press
QNH
hPa
Press
MSL
hPa
Rain since
9am
mm
Dir  Spd
km/h
Gust
km/h
Spd
kts
Gust
kts
19/11:30pm 14.4 10.5 8.8 69 2.8 NNE 19 30 10 16 1023.6 1023.6 0.0
19/11:00pm 14.0 10.9 8.8 71 2.6 NNE 15 22 8 12 1023.8 1023.8 0.0
19/10:30pm 13.6 11.6 8.7 72 2.5 NNE 9 11 5 6 1024.1 1024.1 0.0
19/10:00pm 14.3 11.2 8.7 69 2.8 NNE 15 20 8 11 1024.3 1024.3 0.0
19/09:30pm 14.9 11.0 8.8 67 3.1 NNE 19 28 10 15 1024.4 1024.4 0.0
19/09:00pm 15.3 11.4 8.8 65 3.3 NNE 19 26 10 14 1024.7 1024.7 0.0
19/08:30pm 15.7 11.6 8.7 63 3.6 NNE 20 30 11 16 1024.7 1024.7 0.0
19/08:00pm 15.7 12.2 8.7 63 3.6 NNE 17 22 9 12 1024.9 1024.9 0.0
19/07:30pm 15.5 12.7 8.7 64 3.5 NNE 13 20 7 11 1024.9 1024.9 0.0
19/07:00pm 15.5 13.0 8.3 62 3.6 NNE 11 15 6 8 1025.0 1025.0 0.0
19/06:30pm 16.3 13.8 8.3 59 4.1 NNE 11 15 6 8 1025.0 1025.0 0.0
19/06:00pm 17.3 13.7 8.2 55 4.6 NNE 17 26 9 14 1024.7 1024.7 0.0
19/05:30pm 17.9 13.8 7.9 52 5.1 NNE 19 30 10 16 1024.7 1024.7 0.0
19/05:00pm 18.9 14.8 7.7 48 5.7 NNE 19 22 10 12 1024.6 1024.6 0.0
19/04:30pm 19.8 15.4 7.5 45 6.3 NNE 20 32 11 17 1024.7 1024.7 0.0
19/04:00pm 20.5 15.8 7.8 44 6.5 NNE 22 33 12 18 1024.7 1024.7 0.0
19/03:30pm 21.0 16.4 8.0 43 6.8 NNE 22 30 12 16 1024.7 1024.7 0.0
19/03:00pm 21.3 17.0 7.9 42 6.9 NNE 20 30 11 16 1024.7 1024.7 0.0
19/02:30pm 21.6 17.5 8.5 43 6.9 NNE 20 32 11 17 1024.9 1024.9 0.0
19/02:00pm 21.5 17.4 8.7 44 6.7 NNE 20 30 11 16 1025.4 1025.4 0.0
19/01:30pm 20.9 16.4 8.5 45 6.5 NNE 22 32 12 17 1025.6 1025.6 0.0
19/01:00pm 21.3 15.4 7.5 41 7.1 NNE 28 37 15 20 1025.7 1025.7 0.0
19/12:30pm 21.7 16.7 7.9 41 7.2 N 24 37 13 20 1026.1 1026.1 0.0
19/12:00pm 21.0 16.4 8.3 44 6.6 N 22 39 12 21 1026.8 1026.8 0.0
19/11:30am 20.9 16.3 8.2 44 6.6 N 22 33 12 18 1027.5 1027.5 0.0
19/11:00am 20.1 16.1 8.4 47 6.1 N 19 28 10 15 1027.9 1027.9 0.0
19/10:30am 19.4 16.5 9.6 53 5.2 N 15 22 8 12 1028.1 1028.1 0.0
19/10:00am 16.5 16.0 12.7 78 2.1 NW 7 13 4 7 1028.4 1028.4 0.0
19/09:59am 16.2 15.8 12.9 81 1.8 NW 7 9 4 5 1028.5 1028.5 0.0
19/09:30am 11.1 10.0 10.8 98 0.2 NW 7 9 4 5 1028.6 1028.6 0.0
19/09:00am 9.5 8.6 9.4 99 0.0 NW 4 6 2 3 1028.7 1028.7 0.0
19/08:30am 8.7 7.2 8.6 99 0.0 NW 6 7 3 4 1028.5 1028.5 0.0
19/08:00am 7.4 5.6 7.3 99 0.0 NW 6 7 3 4 1028.5 1028.5 0.0
19/07:30am 7.4 5.1 7.3 99 0.0 NW 9 9 5 5 1028.3 1028.3 0.0
19/07:00am 7.7 5.4 7.6 99 0.0 NW 9 11 5 6 1028.2 1028.2 0.0
19/06:30am 6.7 4.6 6.6 99 0.0 NW 7 9 4 5 1028.1 1028.1 0.0
19/06:00am 6.7 5.9 6.6 99 0.0 CALM 0 0 0 0 1028.1 1028.1 0.0
19/05:30am 6.9 4.8 6.8 99 0.0 NW 7 9 4 5 1028.0 1028.0 0.0
19/05:19am 6.5 4.5 6.4 99 0.0 NW 6 7 3 4 1028.1 1028.1 0.0
19/05:05am 6.1 4.0 6.0 99 0.0 NW 6 7 3 4 1028.2 1028.2 0.0
19/05:00am 6.1 4.0 6.0 99 0.0 NW 6 7 3 4 1028.2 1028.2 0.0
19/04:30am 7.2 5.2 7.1 99 0.0 NW 7 7 4 4 1028.2 1028.2 0.0
19/04:23am 7.2 5.2 7.1 99 0.0 NW 7 9 4 5 1028.2 1028.2 0.0
19/04:00am 6.3 4.3 6.2 99 0.0 NW 6 6 3 3 1028.2 1028.2 0.0
19/03:56am 6.5 4.5 6.4 99 0.0 NW 6 6 3 3 1028.2 1028.2 0.0
19/03:46am 6.9 6.2 6.8 99 0.0 CALM 0 0 0 0 1028.2 1028.2 0.0
19/03:30am 6.4 5.2 6.3 99 0.0 NW 2 6 1 3 1028.4 1028.4 0.0
19/03:00am 6.7 5.9 6.6 99 0.0 CALM 0 0 0 0 1028.4 1028.4 0.0
19/02:30am 6.8 5.7 6.7 99 0.0 NW 2 6 1 3 1028.5 1028.5 0.0
19/02:24am 6.9 5.4 6.8 99 0.0 NW 4 7 2 4 1028.5 1028.5 0.0
19/02:00am 7.1 6.4 7.0 99 0.0 CALM 0 0 0 0 1028.8 1028.8 0.0
19/01:30am 7.2 4.8 7.1 99 0.0 NW 9 13 5 7 1028.8 1028.8 0.0
19/01:26am 7.5 4.8 7.4 99 0.0 NW 11 13 6 7 1028.9 1028.9 0.0
19/01:00am 6.8 4.7 6.7 99 0.0 NW 7 11 4 6 1029.0 1029.0 0.0
19/12:30am 7.6 5.7 7.5 99 0.0 NW 7 9 4 5 1029.2 1029.2 0.0
19/12:00am 8.5 6.8 8.4 99 0.0 NW 7 9 4 5 1029.3 1029.3 0.0
 
Date/Time
EST
Temp
°C
App
Temp
°C
Dew
Point
°C
Rel
Hum
%
Delta-T
°C
Wind Press
QNH
hPa
Press
MSL
hPa
Rain since
9am
mm
Dir  Spd
km/h
Gust
km/h
Spd
kts
Gust
kts
18/11:30pm 8.0 6.4 7.9 99 0.0 WNW 6 9 3 5 1029.6 1029.6 0.0
18/11:00pm 8.5 8.1 8.4 99 0.0 CALM 0 0 0 0 1029.8 1029.8 0.0
18/10:30pm 9.1 7.2 9.0 99 0.0 WNW 9 13 5 7 1029.6 1029.6 0.0
18/10:00pm 8.9 6.5 8.6 98 0.1 WNW 11 15 6 8 1029.7 1029.7 0.0
18/09:30pm 9.2 6.0 8.6 96 0.3 NW 15 17 8 9 1029.7 1029.7 0.0
18/09:29pm 9.2 6.0 8.6 96 0.3 NW 15 17 8 9 1029.7 1029.7 0.0
18/09:00pm 9.0 6.0 7.8 92 0.6 NW 13 15 7 8 1029.3 1029.3 0.0
18/08:43pm 10.3 8.4 9.2 93 0.5 S 9 13 5 7 1029.5 1029.5 0.0
18/08:30pm 11.5 10.4 10.7 95 0.4 SSE 7 9 4 5 1029.6 1029.6 0.0
18/08:29pm 11.6 10.5 10.8 95 0.4 SSE 7 9 4 5 1029.6 1029.6 0.0
18/08:00pm 12.6 11.7 10.7 88 1.0 SSE 6 7 3 4 1029.6 1029.6 0.0
18/07:30pm 13.3 11.8 10.7 84 1.4 SSE 9 11 5 6 1029.5 1029.5 0.0
18/07:00pm 14.5 12.1 9.9 74 2.4 SE 13 20 7 11 1029.4 1029.4 0.0
18/06:30pm 14.7 12.0 10.3 75 2.3 SE 15 20 8 11 1029.2 1029.2 0.0
18/06:00pm 15.0 13.3 10.0 72 2.6 SE 9 13 5 7 1028.6 1028.6 0.0
18/05:30pm 15.3 13.3 8.5 64 3.4 SSE 9 9 5 5 1028.0 1028.0 0.0
18/05:00pm 15.9 13.2 8.9 63 3.6 SSE 13 19 7 10 1027.8 1027.8 0.0
18/04:30pm 16.1 13.6 9.8 66 3.3 SSE 13 19 7 10 1027.7 1027.7 0.0
18/04:00pm 16.6 14.2 10.0 65 3.5 SSE 13 15 7 8 1027.8 1027.8 0.0
18/03:30pm 17.2 15.2 10.1 63 3.8 SSE 11 13 6 7 1027.8 1027.8 0.0
18/03:00pm 16.9 14.4 9.6 62 3.8 SSE 13 17 7 9 1027.9 1027.9 0.0
18/02:30pm 16.8 13.8 9.2 61 3.9 SSE 15 20 8 11 1028.1 1028.1 0.0
18/02:00pm 17.1 14.5 9.3 60 4.0 SE 13 19 7 10 1028.2 1028.2 0.0
18/01:30pm 18.0 15.6 8.8 55 4.8 SE 11 17 6 9 1028.4 1028.4 0.0
18/01:00pm 18.5 16.5 8.7 53 5.1 E 9 11 5 6 1028.8 1028.8 0.0
18/12:30pm 18.0 16.6 8.8 55 4.8 NNE 6 9 3 5 1029.5 1029.5 0.0
18/12:00pm 16.5 15.0 9.0 61 3.8 NNE 7 9 4 5 1030.1 1030.1 0.0
18/11:30am 15.9 14.4 8.6 62 3.7 NNE 6 9 3 5 1030.5 1030.5 0.0
18/11:00am 15.0 13.6 8.9 67 3.1 NNE 6 9 3 5 1030.8 1030.8 0.0
18/10:30am 13.1 11.6 8.6 74 2.3 NNE 6 9 3 5 1030.8 1030.8 0.0
18/10:00am 12.3 11.6 8.6 78 1.8 NNE 2 7 1 4 1030.9 1030.9 0.0
18/09:30am 10.5 9.0 8.3 86 1.1 NNE 6 7 3 4 1030.9 1030.9 0.0
18/09:00am 8.8 8.5 8.7 99 0.0 CALM 0 0 0 0 1031.0 1031.0 0.0
18/08:30am 7.0 5.0 7.0 100 0.0 NNE 7 9 4 5 1030.7 1030.7 0.0
18/08:00am 5.3 3.1 5.2 99 0.0 ENE 6 7 3 4 1030.6 1030.6 0.0
18/07:55am 4.8 2.9 4.7 99 0.0 ENE 4 6 2 3 1030.5 1030.5 0.0
18/07:31am 3.7 2.3 3.6 99 0.0 CALM 0 0 0 0 1030.1 1030.1 0.0
18/07:30am 3.7 2.3 3.6 99 0.0 CALM 0 4 0 2 1030.1 1030.1 0.0
18/07:00am 3.8 0.7 3.7 99 0.0 NW 9 11 5 6 1029.8 1029.8 0.0
18/06:50am 3.9 1.2 3.8 99 0.0 NW 7 9 4 5 1029.7 1029.7 0.0
18/06:32am 4.0 1.3 3.9 99 0.0 NW 7 9 4 5 1029.6 1029.6 0.0
18/06:30am 4.0 1.3 3.9 99 0.0 NW 7 9 4 5 1029.7 1029.7 0.0
18/06:25am 4.3 1.9 4.2 99 0.0 NW 6 7 3 4 1029.6 1029.6 0.0
18/06:11am 3.8 1.1 3.7 99 0.0 NW 7 9 4 5 1029.5 1029.5 0.0
18/06:00am 3.9 0.8 3.8 99 0.0 NW 9 13 5 7 1029.4 1029.4 0.0
18/05:30am 3.4 0.2 3.3 99 0.0 NW 9 9 5 5 1029.2 1029.2 0.0
18/05:22am 3.7 0.6 3.6 99 0.0 NW 9 11 5 6 1029.2 1029.2 0.0
18/05:04am 3.6 0.5 3.5 99 0.0 NW 9 9 5 5 1029.4 1029.4 0.0
18/05:00am 3.9 0.8 3.8 99 0.0 NW 9 9 5 5 1029.4 1029.4 0.0
18/04:57am 4.2 1.2 4.1 99 0.0 NW 9 9 5 5 1029.4 1029.4 0.0
18/04:47am 3.8 1.1 3.7 99 0.0 NW 7 7 4 4 1029.4 1029.4 0.0

Latest Capital City Observations: Canberra | Sydney | Melbourne | Brisbane | Adelaide | Perth | Hobart | Darwin

Other formats

Comma delimited format used in spreadsheet applications
http://www.bom.gov.au/fwo/IDV60901/IDV60901.94865.axf

JavaScript Object Notation format (JSON) in row-major order
http://www.bom.gov.au/fwo/IDV60901/IDV60901.94865.json

Data quality

Most of these data are generated automatically and are frequently updated. Quality checks on data are not normally performed. It is possible for incorrect values to appear. Refer to information at About Latest Weather Observations and please check the disclaimer before using these data.